createdAt,value
2019-04-01T00:01:43.501Z,6.40
2019-04-01T00:04:10.749Z,6.10
2019-04-01T00:06:38.016Z,5.63
2019-04-01T00:09:06.098Z,5.70
2019-04-01T00:11:33.306Z,5.90
2019-04-01T00:14:00.533Z,5.83
2019-04-01T00:16:27.758Z,5.50
2019-04-01T00:19:02.882Z,5.37
2019-04-01T00:21:23.929Z,5.77
2019-04-01T00:23:51.421Z,5.30
2019-04-01T00:26:18.890Z,5.03
2019-04-01T00:28:46.109Z,5.43
2019-04-01T00:31:13.313Z,5.07
2019-04-01T00:33:40.528Z,4.97
2019-04-01T00:36:08.119Z,5.33
2019-04-01T00:38:35.414Z,5.10
2019-04-01T00:41:02.618Z,4.97
2019-04-01T00:43:40.803Z,4.30
2019-04-01T00:46:08.990Z,4.57
2019-04-01T00:48:36.532Z,4.00
2019-04-01T00:51:03.769Z,4.53
2019-04-01T00:53:30.986Z,4.13
2019-04-01T00:55:58.221Z,4.77
2019-04-01T00:58:25.439Z,4.13
2019-04-01T01:00:52.654Z,4.20
2019-04-01T01:03:19.873Z,3.93
2019-04-01T01:05:47.080Z,4.53
2019-04-01T01:08:14.304Z,4.63
2019-04-01T01:10:41.797Z,5.23
2019-04-01T01:13:09.017Z,4.57
2019-04-01T01:15:36.247Z,4.30
2019-04-01T01:18:03.450Z,4.67
2019-04-01T01:20:31.022Z,4.33
2019-04-01T01:22:58.232Z,4.37
2019-04-01T01:25:25.451Z,4.47
2019-04-01T01:27:52.678Z,4.13
2019-04-01T01:30:19.954Z,4.30
2019-04-01T01:32:47.181Z,4.20
2019-04-01T01:35:14.391Z,4.10
2019-04-01T01:37:41.624Z,3.77
2019-04-01T01:40:08.897Z,4.43
2019-04-01T01:42:36.370Z,3.90
2019-04-01T01:45:04.645Z,4.37
2019-04-01T01:47:31.850Z,4.17
2019-04-01T01:49:59.354Z,3.90
2019-04-01T01:52:26.915Z,4.17
2019-04-01T01:54:55.294Z,3.80
2019-04-01T01:57:22.497Z,3.73
2019-04-01T01:59:49.702Z,4.03
2019-04-01T02:02:16.954Z,4.17
2019-04-01T02:04:44.158Z,4.30
2019-04-01T02:07:11.382Z,3.73
2019-04-01T02:09:38.898Z,3.70
2019-04-01T02:12:06.129Z,3.70
2019-04-01T02:14:33.622Z,4.10
2019-04-01T02:17:01.305Z,4.60
2019-04-01T02:19:28.509Z,4.80
2019-04-01T02:21:55.716Z,4.93
2019-04-01T02:24:22.997Z,4.80
2019-04-01T02:26:50.177Z,5.50
2019-04-01T02:29:17.406Z,5.30
2019-04-01T02:31:44.627Z,5.37
2019-04-01T02:34:11.850Z,5.43
2019-04-01T02:36:39.079Z,5.00
2019-04-01T02:39:08.054Z,5.33
2019-04-01T02:41:35.291Z,6.13
2019-04-01T02:44:02.780Z,4.73
2019-04-01T02:46:30.334Z,5.23
2019-04-01T02:48:57.602Z,5.70
2019-04-01T02:51:24.820Z,5.47
2019-04-01T02:53:52.034Z,4.80
2019-04-01T02:56:19.272Z,5.00
2019-04-01T02:58:46.474Z,4.60
2019-04-01T03:01:13.726Z,4.63
2019-04-01T03:03:40.915Z,4.53
2019-04-01T03:06:08.451Z,4.67
2019-04-01T03:08:36.150Z,4.90
2019-04-01T03:11:03.403Z,4.63
2019-04-01T03:13:30.627Z,5.10
2019-04-01T03:15:58.172Z,4.90
2019-04-01T03:18:29.606Z,4.40
2019-04-01T03:20:56.810Z,4.77
2019-04-01T03:23:24.330Z,4.37
2019-04-01T03:25:51.604Z,4.17
2019-04-01T03:28:19.148Z,4.83
2019-04-01T03:30:46.363Z,4.10
2019-04-01T03:33:13.887Z,4.63
2019-04-01T03:35:41.358Z,4.53
2019-04-01T03:38:08.584Z,4.33
2019-04-01T03:40:35.808Z,4.57
2019-04-01T03:43:04.283Z,5.07
2019-04-01T03:45:31.530Z,4.90
2019-04-01T03:47:58.761Z,5.43
2019-04-01T03:50:25.998Z,5.23
2019-04-01T03:52:53.210Z,4.83
2019-04-01T03:55:20.422Z,4.37
2019-04-01T03:57:47.630Z,5.20
2019-04-01T04:00:14.927Z,8.17
2019-04-01T04:02:42.135Z,6.03
2019-04-01T04:05:09.446Z,6.43
2019-04-01T04:07:36.650Z,6.30
2019-04-01T04:10:05.448Z,5.70
2019-04-01T04:12:32.938Z,6.13
2019-04-01T04:15:00.509Z,6.73
2019-04-01T04:17:27.953Z,6.60
2019-04-01T04:19:55.309Z,6.33
2019-04-01T04:22:22.523Z,6.50
2019-04-01T04:24:49.712Z,6.43
2019-04-01T04:27:16.940Z,6.10
2019-04-01T04:29:44.200Z,7.03
2019-04-01T04:32:11.455Z,6.60
2019-04-01T04:34:38.674Z,6.70
2019-04-01T04:37:06.171Z,6.80
2019-04-01T04:39:33.725Z,7.47
2019-04-01T04:42:00.941Z,6.83
2019-04-01T04:44:28.187Z,7.30
2019-04-01T04:46:55.390Z,6.83
2019-04-01T04:49:22.609Z,6.43
2019-04-01T04:51:50.087Z,7.27
2019-04-01T04:54:17.370Z,7.43
2019-04-01T04:56:44.593Z,6.60
2019-04-01T04:59:11.819Z,6.80
2019-04-01T05:01:39.061Z,6.30
2019-04-01T05:04:06.277Z,6.80
2019-04-01T05:06:33.482Z,5.90
2019-04-01T05:09:01.666Z,5.87
2019-04-01T05:11:28.869Z,5.57
2019-04-01T05:13:56.153Z,6.03
2019-04-01T05:16:23.388Z,5.57
2019-04-01T05:18:50.620Z,5.23
2019-04-01T05:21:18.862Z,5.47
2019-04-01T05:23:47.114Z,5.40
2019-04-01T05:26:15.704Z,5.67
2019-04-01T05:28:43.625Z,5.63
2019-04-01T05:31:14.487Z,6.47
2019-04-01T05:33:54.896Z,7.10
2019-04-01T05:36:13.408Z,6.70
2019-04-01T05:38:40.618Z,6.80
2019-04-01T05:41:08.119Z,7.00
2019-04-01T05:43:35.349Z,6.33
2019-04-01T05:46:02.576Z,6.07
2019-04-01T05:48:31.053Z,6.63
2019-04-01T05:50:58.288Z,6.53
2019-04-01T05:53:25.490Z,6.77
2019-04-01T05:55:52.959Z,6.57
2019-04-01T05:58:20.514Z,6.73
2019-04-01T06:00:49.939Z,6.30
2019-04-01T06:03:17.486Z,6.37
2019-04-01T06:05:44.690Z,6.10
2019-04-01T06:08:11.910Z,6.27
2019-04-01T06:10:39.126Z,6.10
2019-04-01T06:13:06.358Z,6.20
2019-04-01T06:15:33.581Z,6.07
2019-04-01T06:18:01.799Z,6.40
2019-04-01T06:20:29.078Z,5.93
2019-04-01T06:22:56.290Z,5.80
2019-04-01T06:25:23.515Z,6.10
2019-04-01T06:27:51.018Z,5.60
2019-04-01T06:30:18.573Z,5.53
2019-04-01T06:32:46.129Z,5.40
2019-04-01T06:35:13.686Z,5.67
2019-04-01T06:37:40.917Z,4.80
2019-04-01T06:40:08.197Z,5.37
2019-04-01T06:42:35.446Z,5.37
2019-04-01T06:45:03.103Z,5.10
2019-04-01T06:47:30.665Z,4.73
2019-04-01T06:49:57.865Z,4.60
2019-04-01T06:52:25.085Z,4.67
2019-04-01T06:54:52.622Z,4.90
2019-04-01T06:57:19.825Z,4.70
2019-04-01T06:59:47.137Z,4.63
2019-04-01T07:02:14.345Z,4.87
2019-04-01T07:04:41.825Z,4.60
2019-04-01T07:07:18.788Z,4.67
2019-04-01T07:09:39.203Z,4.53
2019-04-01T07:12:06.405Z,4.70
2019-04-01T07:14:33.911Z,5.13
2019-04-01T07:17:01.114Z,4.67
2019-04-01T07:19:28.341Z,4.80
2019-04-01T07:21:55.566Z,4.03
2019-04-01T07:24:22.815Z,4.10
2019-04-01T07:26:50.010Z,4.00
2019-04-01T07:29:17.299Z,3.63
2019-04-01T07:31:44.521Z,4.23
2019-04-01T07:34:11.793Z,3.70
2019-04-01T07:36:39.081Z,3.60
2019-04-01T07:39:06.631Z,3.87
2019-04-01T07:41:33.916Z,3.60
2019-04-01T07:44:02.661Z,3.80
2019-04-01T07:46:29.873Z,3.80
2019-04-01T07:48:57.477Z,3.53
2019-04-01T07:51:25.057Z,3.40
2019-04-01T07:53:52.266Z,3.70
2019-04-01T07:56:19.539Z,3.60
2019-04-01T07:58:47.118Z,3.83
2019-04-01T08:01:14.325Z,3.63
2019-04-01T08:03:42.157Z,4.53
2019-04-01T08:06:09.442Z,3.80
2019-04-01T08:08:36.724Z,4.07
2019-04-01T08:11:04.002Z,4.20
2019-04-01T08:13:31.276Z,3.97
2019-04-01T08:15:58.518Z,3.93
2019-04-01T08:18:25.749Z,4.60
2019-04-01T08:20:53.640Z,5.13
2019-04-01T08:23:21.137Z,4.60
2019-04-01T08:25:48.393Z,4.43
2019-04-01T08:28:15.852Z,4.07
2019-04-01T08:30:43.406Z,4.03
2019-04-01T08:33:10.970Z,4.73
2019-04-01T08:35:38.222Z,4.80
2019-04-01T08:38:05.461Z,4.87
2019-04-01T08:40:32.670Z,5.13
2019-04-01T08:42:59.894Z,4.77
2019-04-01T08:45:27.122Z,4.90
2019-04-01T08:47:54.357Z,4.77
2019-04-01T08:50:21.829Z,4.83
2019-04-01T08:52:49.055Z,5.17
2019-04-01T08:55:16.254Z,5.43
2019-04-01T08:57:43.508Z,5.60
2019-04-01T09:00:11.415Z,4.90
2019-04-01T09:02:38.717Z,5.17
2019-04-01T09:05:06.014Z,5.67
2019-04-01T09:07:33.223Z,5.37
2019-04-01T09:10:01.314Z,6.10
2019-04-01T09:12:28.542Z,5.77
2019-04-01T09:14:55.777Z,5.57
2019-04-01T09:17:23.339Z,5.63
2019-04-01T09:19:50.830Z,5.90
2019-04-01T09:22:18.041Z,5.50
2019-04-01T09:24:45.273Z,5.57
2019-04-01T09:27:12.476Z,5.83
2019-04-01T09:29:40.003Z,5.70
2019-04-01T09:32:07.234Z,6.20
2019-04-01T09:34:34.438Z,6.37
2019-04-01T09:37:01.966Z,5.90
2019-04-01T09:39:29.193Z,6.20
2019-04-01T09:41:56.665Z,6.17
2019-04-01T09:44:36.118Z,6.40
2019-04-01T09:46:53.149Z,6.80
2019-04-01T09:49:20.358Z,6.63
2019-04-01T09:51:49.250Z,6.87
2019-04-01T09:54:16.535Z,6.23
2019-04-01T09:56:43.774Z,6.57
2019-04-01T09:59:11.027Z,6.47
2019-04-01T10:01:38.233Z,6.40
2019-04-01T10:04:05.738Z,6.70
2019-04-01T10:06:32.957Z,6.90
2019-04-01T10:09:00.187Z,7.63
2019-04-01T10:11:27.410Z,7.03
2019-04-01T10:13:54.670Z,7.20
2019-04-01T10:16:21.908Z,7.10
2019-04-01T10:18:49.433Z,7.78
2019-04-01T10:21:16.658Z,7.42
2019-04-01T10:23:43.917Z,7.78
2019-04-01T10:26:11.215Z,8.30
2019-04-01T10:28:38.412Z,8.45
2019-04-01T10:31:05.644Z,8.23
2019-04-01T10:33:32.842Z,9.03
2019-04-01T10:36:00.071Z,8.00
2019-04-01T10:38:27.399Z,8.97
2019-04-01T10:40:54.684Z,9.17
2019-04-01T10:43:21.909Z,8.80
2019-04-01T10:45:49.153Z,8.47
2019-04-01T10:48:16.412Z,8.40
2019-04-01T10:50:43.728Z,8.67
2019-04-01T10:53:10.990Z,8.77
2019-04-01T10:55:38.315Z,9.60
2019-04-01T10:58:05.712Z,9.43
2019-04-01T11:00:33.055Z,8.77
2019-04-01T11:03:00.674Z,8.93
2019-04-01T11:05:28.533Z,9.43
2019-04-01T11:07:55.828Z,9.57
2019-04-01T11:10:23.049Z,9.63
2019-04-01T11:12:50.502Z,9.50
2019-04-01T11:15:19.992Z,9.53
2019-04-01T11:17:47.357Z,10.10
2019-04-01T11:20:14.637Z,10.27
2019-04-01T11:22:41.845Z,9.37
2019-04-01T11:25:09.415Z,10.67
2019-04-01T11:27:36.654Z,10.30
2019-04-01T11:30:05.252Z,9.90
2019-04-01T11:32:32.526Z,11.03
2019-04-01T11:35:00.184Z,11.03
2019-04-01T11:37:27.784Z,11.47
2019-04-01T11:39:55.439Z,11.03
2019-04-01T11:42:23.217Z,11.47
2019-04-01T11:44:50.816Z,10.50
2019-04-01T11:47:20.375Z,10.80
2019-04-01T11:49:47.060Z,11.43
2019-04-01T11:52:15.697Z,10.70
2019-04-01T11:54:43.295Z,11.10
2019-04-01T11:57:11.101Z,10.73
2019-04-01T11:59:38.822Z,11.83
2019-04-01T12:02:06.029Z,11.50
2019-04-01T12:04:33.277Z,11.63
2019-04-01T12:07:02.183Z,11.93
2019-04-01T12:09:29.574Z,11.87
2019-04-01T12:11:56.801Z,11.20
2019-04-01T12:14:24.085Z,11.60
2019-04-01T12:16:51.625Z,13.43
2019-04-01T12:19:18.849Z,12.50
2019-04-01T12:21:46.437Z,10.83
2019-04-01T12:24:13.674Z,11.13
2019-04-01T12:26:40.884Z,11.47
2019-04-01T12:29:11.592Z,12.20
2019-04-01T12:31:37.070Z,11.80
2019-04-01T12:34:04.376Z,10.67
2019-04-01T12:36:31.617Z,10.60
2019-04-01T12:38:58.820Z,11.80
2019-04-01T12:41:26.045Z,11.40
2019-04-01T12:43:53.269Z,10.83
2019-04-01T12:46:20.794Z,11.30
2019-04-01T12:48:48.005Z,12.30
2019-04-01T12:51:15.497Z,11.53
2019-04-01T12:53:42.711Z,11.73
2019-04-01T12:56:09.956Z,11.77
2019-04-01T12:58:37.158Z,11.60
2019-04-01T13:01:04.719Z,11.50
2019-04-01T13:03:32.265Z,11.53
2019-04-01T13:05:59.473Z,11.77
2019-04-01T13:08:26.977Z,11.37
2019-04-01T13:10:56.516Z,11.07
2019-04-01T13:13:23.187Z,11.73
2019-04-01T13:15:50.402Z,12.27
2019-04-01T13:18:18.180Z,13.50
2019-04-01T13:20:46.213Z,12.07
2019-04-01T13:23:13.764Z,11.90
2019-04-01T13:25:41.318Z,12.10
2019-04-01T13:28:08.537Z,12.53
2019-04-01T13:30:35.822Z,12.40
2019-04-01T13:33:03.029Z,12.47
2019-04-01T13:35:30.261Z,12.23
2019-04-01T13:37:58.046Z,12.60
2019-04-01T13:40:25.400Z,12.17
2019-04-01T13:42:52.902Z,11.63
2019-04-01T13:45:21.410Z,12.50
2019-04-01T13:47:49.642Z,11.30
2019-04-01T13:50:17.488Z,12.40
2019-04-01T13:52:44.746Z,12.53
2019-04-01T13:55:12.125Z,12.67
2019-04-01T13:57:39.682Z,12.20
2019-04-01T14:00:07.476Z,13.03
2019-04-01T14:02:35.010Z,12.23
2019-04-01T14:05:05.766Z,13.23
2019-04-01T14:07:31.202Z,12.10
2019-04-01T14:09:58.490Z,13.03
2019-04-01T14:12:25.721Z,12.83
2019-04-01T14:14:53.319Z,12.07
2019-04-01T14:17:20.530Z,11.67
2019-04-01T14:19:47.757Z,12.03
2019-04-01T14:22:15.271Z,12.47
2019-04-01T14:24:42.838Z,13.83
2019-04-01T14:27:10.164Z,12.80
2019-04-01T14:29:37.951Z,12.93
2019-04-01T14:32:05.153Z,11.37
2019-04-01T14:34:32.391Z,12.10
2019-04-01T14:36:59.605Z,13.30
2019-04-01T14:39:27.155Z,12.23
2019-04-01T14:41:54.385Z,12.00
2019-04-01T14:44:21.603Z,12.70
2019-04-01T14:46:48.839Z,11.20
2019-04-01T14:49:16.074Z,13.33
2019-04-01T14:51:43.374Z,11.23
2019-04-01T14:54:10.610Z,13.13
2019-04-01T14:56:37.854Z,11.50
2019-04-01T14:59:05.079Z,11.23
2019-04-01T15:01:32.310Z,11.43
2019-04-01T15:03:59.532Z,11.77
2019-04-01T15:06:26.761Z,11.30
2019-04-01T15:08:54.270Z,12.70
2019-04-01T15:11:21.510Z,11.57
2019-04-01T15:13:48.978Z,11.30
2019-04-01T15:16:16.542Z,10.97
2019-04-01T15:18:45.368Z,10.53
2019-04-01T15:21:12.774Z,11.17
2019-04-01T15:23:40.350Z,10.90
2019-04-01T15:26:07.562Z,11.50
2019-04-01T15:28:35.965Z,10.83
2019-04-01T15:31:03.169Z,11.07
2019-04-01T15:33:30.673Z,10.60
2019-04-01T15:35:57.915Z,10.30
2019-04-01T15:38:25.382Z,11.27
2019-04-01T15:40:52.622Z,10.47
2019-04-01T15:43:20.095Z,11.73
2019-04-01T15:45:47.331Z,10.30
2019-04-01T15:48:14.803Z,10.57
2019-04-01T15:50:42.382Z,10.83
2019-04-01T15:53:09.609Z,10.93
2019-04-01T15:55:36.838Z,10.83
2019-04-01T15:58:04.049Z,10.93
2019-04-01T16:00:32.166Z,11.30
2019-04-01T16:02:59.753Z,10.77
2019-04-01T16:05:30.403Z,11.13
2019-04-01T16:07:57.062Z,10.97
2019-04-01T16:10:24.462Z,10.47
2019-04-01T16:12:51.673Z,9.00
2019-04-01T16:15:18.898Z,9.67
2019-04-01T16:17:46.106Z,9.77
2019-04-01T16:20:13.340Z,9.43
2019-04-01T16:22:43.515Z,9.67
2019-04-01T16:25:09.574Z,9.83
2019-04-01T16:27:36.798Z,8.97
2019-04-01T16:30:05.261Z,8.60
2019-04-01T16:32:32.463Z,9.30
2019-04-01T16:34:59.958Z,9.43
2019-04-01T16:37:27.512Z,10.20
2019-04-01T16:39:54.885Z,10.40
2019-04-01T16:42:22.138Z,10.13
2019-04-01T16:44:49.373Z,9.23
2019-04-01T16:47:16.585Z,10.40
2019-04-01T16:49:44.071Z,10.07
2019-04-01T16:52:15.072Z,9.00
2019-04-01T16:54:40.823Z,10.60
2019-04-01T16:57:08.041Z,10.07
2019-04-01T16:59:35.273Z,10.90
2019-04-01T17:02:02.497Z,9.67
2019-04-01T17:04:29.728Z,11.43
2019-04-01T17:06:56.957Z,10.43
2019-04-01T17:09:24.457Z,10.10
2019-04-01T17:11:54.275Z,11.23
2019-04-01T17:14:20.995Z,10.37
2019-04-01T17:16:48.206Z,11.33
2019-04-01T17:19:15.705Z,10.87
2019-04-01T17:21:43.254Z,10.40
2019-04-01T17:24:10.558Z,10.60
2019-04-01T17:26:45.314Z,11.47
2019-04-01T17:29:12.792Z,11.37
2019-04-01T17:31:40.078Z,11.37
2019-04-01T17:34:07.289Z,10.87
2019-04-01T17:36:34.881Z,11.20
2019-04-01T17:39:02.124Z,12.83
2019-04-01T17:41:29.345Z,15.73
2019-04-01T17:43:56.562Z,17.10
2019-04-01T17:46:26.399Z,16.50
2019-04-01T17:48:53.060Z,15.23
2019-04-01T17:51:20.269Z,12.33
2019-04-01T17:53:47.501Z,12.10
2019-04-01T17:56:14.723Z,11.00
2019-04-01T17:58:42.263Z,11.47
2019-04-01T18:01:10.511Z,11.30
2019-04-01T18:03:38.514Z,11.40
2019-04-01T18:06:06.074Z,11.10
2019-04-01T18:08:34.223Z,11.17
2019-04-01T18:11:01.750Z,11.33
2019-04-01T18:13:29.258Z,11.33
2019-04-01T18:15:57.449Z,11.23
2019-04-01T18:18:27.224Z,11.83
2019-04-01T18:20:54.193Z,12.53
2019-04-01T18:23:22.248Z,12.30
2019-04-01T18:25:49.973Z,12.10
2019-04-01T18:28:17.506Z,11.50
2019-04-01T18:30:44.737Z,12.53
2019-04-01T18:33:11.977Z,12.43
2019-04-01T18:35:39.219Z,12.37
2019-04-01T18:38:06.686Z,12.97
2019-04-01T18:40:35.540Z,13.10
2019-04-01T18:43:02.872Z,13.20
2019-04-01T18:45:30.124Z,12.47
2019-04-01T18:47:57.636Z,12.00
2019-04-01T18:50:25.202Z,11.47
2019-04-01T18:52:52.775Z,11.90
2019-04-01T18:55:20.321Z,12.80
2019-04-01T18:57:47.549Z,13.03
2019-04-01T19:00:14.833Z,11.63
2019-04-01T19:02:42.227Z,12.57
2019-04-01T19:05:10.264Z,13.10
2019-04-01T19:07:37.752Z,12.17
2019-04-01T19:10:06.919Z,12.53
2019-04-01T19:12:35.909Z,12.53
2019-04-01T19:15:04.618Z,12.80
2019-04-01T19:17:31.862Z,12.47
2019-04-01T19:19:59.075Z,12.50
2019-04-01T19:22:26.295Z,12.10
2019-04-01T19:24:53.777Z,12.93
2019-04-01T19:27:21.189Z,11.93
2019-04-01T19:29:49.405Z,11.27
2019-04-01T19:32:17.065Z,12.90
2019-04-01T19:34:44.630Z,11.73
2019-04-01T19:37:11.870Z,11.87
2019-04-01T19:39:39.107Z,11.90
2019-04-01T19:42:06.581Z,11.30
2019-04-01T19:44:33.818Z,10.77
2019-04-01T19:47:01.030Z,11.20
2019-04-01T19:49:28.541Z,11.67
2019-04-01T19:51:56.289Z,11.67
2019-04-01T19:54:31.202Z,11.50
2019-04-01T19:56:53.882Z,11.43
2019-04-01T19:59:21.205Z,13.60
2019-04-01T20:01:49.721Z,17.07
2019-04-01T20:04:16.939Z,17.17
2019-04-01T20:06:44.181Z,16.30
2019-04-01T20:09:11.406Z,15.53
2019-04-01T20:11:38.630Z,14.33
2019-04-01T20:14:05.879Z,12.87
2019-04-01T20:16:33.430Z,11.07
2019-04-01T20:19:00.655Z,10.63
2019-04-01T20:21:28.255Z,10.37
2019-04-01T20:23:55.888Z,11.03
2019-04-01T20:26:23.098Z,10.20
2019-04-01T20:28:50.334Z,10.50
2019-04-01T20:31:17.545Z,9.40
2019-04-01T20:33:44.794Z,9.57
2019-04-01T20:36:12.001Z,10.27
2019-04-01T20:38:39.618Z,9.50
2019-04-01T20:41:06.881Z,9.30
2019-04-01T20:43:34.146Z,10.87
2019-04-01T20:46:01.364Z,10.50
2019-04-01T20:48:28.603Z,10.30
2019-04-01T20:50:57.170Z,10.97
2019-04-01T20:53:24.579Z,11.37
2019-04-01T20:55:51.819Z,11.40
2019-04-01T20:58:19.171Z,12.80
2019-04-01T21:00:46.821Z,12.97
2019-04-01T21:03:14.074Z,11.77
2019-04-01T21:05:41.639Z,11.17
2019-04-01T21:08:09.194Z,9.73
2019-04-01T21:10:36.754Z,11.03
2019-04-01T21:13:04.072Z,10.50
2019-04-01T21:15:31.618Z,10.70
2019-04-01T21:17:59.133Z,10.63
2019-04-01T21:20:26.421Z,11.43
2019-04-01T21:22:53.710Z,10.07
2019-04-01T21:25:20.995Z,10.07
2019-04-01T21:27:48.573Z,10.20
2019-04-01T21:30:16.498Z,9.70
2019-04-01T21:32:45.129Z,10.00
2019-04-01T21:35:12.566Z,9.60
2019-04-01T21:37:40.099Z,9.47
2019-04-01T21:40:07.479Z,8.87
2019-04-01T21:42:35.119Z,9.30
2019-04-01T21:45:02.599Z,8.93
2019-04-01T21:47:29.806Z,9.83
2019-04-01T21:49:57.130Z,8.83
2019-04-01T21:52:24.685Z,9.17
2019-04-01T21:54:51.882Z,9.20
2019-04-01T21:57:20.565Z,8.87
2019-04-01T21:59:48.222Z,9.17
2019-04-01T22:02:15.564Z,8.80
2019-04-01T22:04:43.239Z,9.27
2019-04-01T22:07:10.465Z,8.90
2019-04-01T22:09:37.955Z,8.50
2019-04-01T22:12:05.406Z,8.67
2019-04-01T22:14:32.621Z,8.73
2019-04-01T22:16:59.849Z,8.67
2019-04-01T22:19:27.057Z,9.00
2019-04-01T22:21:54.302Z,9.23
2019-04-01T22:24:21.765Z,8.60
2019-04-01T22:26:48.977Z,9.00
2019-04-01T22:29:16.214Z,8.83
2019-04-01T22:31:44.180Z,8.60
2019-04-01T22:34:12.194Z,8.33
2019-04-01T22:36:40.037Z,9.30
2019-04-01T22:39:07.617Z,8.47
2019-04-01T22:41:34.919Z,9.13
2019-04-01T22:44:02.118Z,9.07
2019-04-01T22:46:29.366Z,8.37
2019-04-01T22:48:56.834Z,8.43
2019-04-01T22:51:24.289Z,8.80
2019-04-01T22:53:51.850Z,7.70
2019-04-01T22:56:19.073Z,8.30
2019-04-01T22:58:46.314Z,9.07
2019-04-01T23:01:13.526Z,8.13
2019-04-01T23:03:41.025Z,8.20
2019-04-01T23:06:08.537Z,8.33
2019-04-01T23:08:35.757Z,8.63
2019-04-01T23:11:03.345Z,8.40
2019-04-01T23:13:30.561Z,8.77
2019-04-01T23:15:58.135Z,8.73
2019-04-01T23:18:25.371Z,8.27
2019-04-01T23:20:52.604Z,8.17
2019-04-01T23:23:19.805Z,7.90
2019-04-01T23:25:47.341Z,8.27
2019-04-01T23:28:14.557Z,8.60
2019-04-01T23:30:41.790Z,8.13
2019-04-01T23:33:09.000Z,7.63
2019-04-01T23:35:36.238Z,7.87
2019-04-01T23:38:03.545Z,8.30
2019-04-01T23:40:32.227Z,8.20
2019-04-01T23:42:59.842Z,8.30
2019-04-01T23:45:27.049Z,7.80
2019-04-01T23:47:54.267Z,7.80
2019-04-01T23:50:21.801Z,8.23
2019-04-01T23:52:49.037Z,8.10
2019-04-01T23:55:16.510Z,7.77
2019-04-01T23:57:43.761Z,7.80
